Time;durP1;ratioP1;P1;durP2;ratioP2;P2;SDS_P1;SDS_P2;PMS_P1;PMS_P2;Temp;Humidity;BMP_temperature;BMP_pressure;BME280_temperature;BME280_humidity;BME280_pressure;Samples;Min_cycle;Max_cycle;Signal;HPM_P1;HPM_P2
2023/08/23 00:01:03;;;;;;;5.87;3.00;;;;;;;;;;5004637;28;20117;-74
2023/08/23 00:03:28;;;;;;;7.27;2.50;;;;;;;;;;5002566;28;20030;-74
2023/08/23 00:05:53;;;;;;;5.10;3.20;;;;;;;;;;5006223;28;20072;-74
2023/08/23 00:08:18;;;;;;;13.27;2.92;;;;;;;;;;5007795;28;20100;-74
2023/08/23 00:10:44;;;;;;;7.07;3.10;;;;;;;;;;5009201;28;20009;-74
2023/08/23 00:13:09;;;;;;;6.80;2.85;;;;;;;;;;5007987;28;20280;-74
2023/08/23 00:15:40;;;;;;;8.13;3.27;;;;;;;;;;5008560;28;20033;-74
2023/08/23 00:18:05;;;;;;;7.18;3.17;;;;;;;;;;5004581;28;20036;-75
2023/08/23 00:20:30;;;;;;;8.17;3.50;;;;;;;;;;5006048;28;20029;-75
2023/08/23 00:22:56;;;;;;;7.17;3.40;;;;;;;;;;5006430;28;20268;-74
2023/08/23 00:25:21;;;;;;;12.70;3.40;;;;;;;;;;5008257;28;20483;-75
2023/08/23 00:27:46;;;;;;;11.27;3.07;;;;;;;;;;5005614;28;20522;-74
2023/08/23 00:30:11;;;;;;;5.93;3.10;;;;;;;;;;5002410;28;20105;-75
2023/08/23 00:32:37;;;;;;;14.45;3.72;;;;;;;;;;5006943;28;20269;-75
2023/08/23 00:35:02;;;;;;;7.40;3.45;;;;;;;;;;5008755;28;20009;-74
2023/08/23 00:37:27;;;;;;;7.95;3.53;;;;;;;;;;5007594;28;20033;-74
2023/08/23 00:39:53;;;;;;;6.20;3.07;;;;;;;;;;5001006;28;20033;-74
2023/08/23 00:42:18;;;;;;;4.70;3.00;;;;;;;;;;5009835;28;20288;-75
2023/08/23 00:44:43;;;;;;;6.50;3.00;;;;;;;;;;5010944;28;20782;-74
2023/08/23 00:47:08;;;;;;;6.87;3.37;;;;;;;;;;5012083;28;20022;-75
2023/08/23 00:49:36;;;;;;;8.77;3.93;;;;;;;;;;5006994;28;20419;-75
2023/08/23 00:52:04;;;;;;;4.10;2.42;;;;;;;;;;5010381;28;20068;-74
2023/08/23 00:54:29;;;;;;;7.38;3.42;;;;;;;;;;5012735;28;20032;-74
2023/08/23 00:56:55;;;;;;;3.53;2.53;;;;;;;;;;5007126;28;20410;-74
2023/08/23 00:59:21;;;;;;;8.13;2.88;;;;;;;;;;5000781;28;20309;-74
2023/08/23 01:01:46;;;;;;;5.75;3.13;;;;;;;;;;5004770;28;20084;-74
2023/08/23 01:04:11;;;;;;;10.63;3.90;;;;;;;;;;5005828;28;20562;-74
2023/08/23 01:06:46;;;;;;;5.27;3.17;;;;;;;;;;5009710;28;20022;-74
2023/08/23 01:09:16;;;;;;;4.10;2.70;;;;;;;;;;5008215;28;20785;-75
2023/08/23 01:12:04;;;;;;;9.10;2.85;;;;;;;;;;5008036;28;20042;-74
2023/08/23 01:14:32;;;;;;;7.45;2.80;;;;;;;;;;4993714;28;20057;-74
2023/08/23 01:16:58;;;;;;;4.63;2.85;;;;;;;;;;5001981;28;20036;-74
2023/08/23 01:19:23;;;;;;;9.52;3.47;;;;;;;;;;5003571;28;20113;-74
2023/08/23 01:21:50;;;;;;;8.70;3.53;;;;;;;;;;5013266;28;20069;-75
2023/08/23 01:24:15;;;;;;;10.52;3.17;;;;;;;;;;5008282;28;20527;-74
2023/08/23 01:26:40;;;;;;;7.70;3.40;;;;;;;;;;5007840;28;20060;-74
2023/08/23 01:29:05;;;;;;;10.25;3.35;;;;;;;;;;5005839;28;20029;-74
2023/08/23 01:31:32;;;;;;;8.00;3.37;;;;;;;;;;5011188;28;20018;-75
2023/08/23 01:34:26;;;;;;;8.38;3.78;;;;;;;;;;5003051;28;20666;-74
2023/08/23 01:36:53;;;;;;;11.75;3.42;;;;;;;;;;4988604;28;20045;-75
2023/08/23 01:39:19;;;;;;;6.38;2.97;;;;;;;;;;5001309;28;20487;-74
2023/08/23 01:41:44;;;;;;;5.88;2.85;;;;;;;;;;5006301;28;20032;-74
2023/08/23 01:44:10;;;;;;;11.32;3.33;;;;;;;;;;5006062;28;20101;-75
2023/08/23 01:46:35;;;;;;;12.85;3.13;;;;;;;;;;5009559;28;20022;-74
2023/08/23 01:49:01;;;;;;;5.72;3.15;;;;;;;;;;5005646;28;20018;-74
2023/08/23 01:51:26;;;;;;;9.82;2.88;;;;;;;;;;5004455;28;20027;-74
2023/08/23 01:53:51;;;;;;;8.30;3.10;;;;;;;;;;5001888;28;20413;-76
2023/08/23 01:56:17;;;;;;;11.17;4.60;;;;;;;;;;5004952;28;20284;-75
2023/08/23 01:58:42;;;;;;;9.60;3.53;;;;;;;;;;5003420;28;20475;-74
2023/08/23 02:01:07;;;;;;;9.40;3.50;;;;;;;;;;5009710;28;20781;-74
2023/08/23 02:03:32;;;;;;;17.73;4.03;;;;;;;;;;5010828;28;20261;-74
2023/08/23 02:05:57;;;;;;;6.63;3.50;;;;;;;;;;5008816;28;20471;-74
2023/08/23 02:08:22;;;;;;;5.80;3.73;;;;;;;;;;5008580;28;20419;-74
2023/08/23 02:10:47;;;;;;;8.50;4.07;;;;;;;;;;5008393;28;20279;-74
2023/08/23 02:13:13;;;;;;;7.38;4.00;;;;;;;;;;5009944;28;20773;-74
2023/08/23 02:15:38;;;;;;;8.30;4.27;;;;;;;;;;5011488;28;20032;-74
2023/08/23 02:18:03;;;;;;;8.18;4.15;;;;;;;;;;5006822;28;20014;-74
2023/08/23 02:20:28;;;;;;;11.32;4.38;;;;;;;;;;5001814;28;20030;-75
2023/08/23 02:22:53;;;;;;;8.43;3.75;;;;;;;;;;5007460;28;20079;-74
2023/08/23 02:25:19;;;;;;;11.23;3.77;;;;;;;;;;5009449;28;20434;-74
2023/08/23 02:27:44;;;;;;;8.88;3.92;;;;;;;;;;5010004;28;20268;-74
2023/08/23 02:30:09;;;;;;;10.30;3.80;;;;;;;;;;5000621;28;20045;-75
2023/08/23 02:32:34;;;;;;;10.23;3.58;;;;;;;;;;5008761;28;20304;-75
2023/08/23 02:35:00;;;;;;;6.57;3.07;;;;;;;;;;5011559;28;20022;-74
2023/08/23 02:37:25;;;;;;;9.35;3.30;;;;;;;;;;5011691;28;20018;-75
2023/08/23 02:39:50;;;;;;;6.97;3.60;;;;;;;;;;5008507;28;20025;-74
2023/08/23 02:42:15;;;;;;;4.87;3.43;;;;;;;;;;5005097;28;20637;-75
2023/08/23 02:44:40;;;;;;;6.00;3.03;;;;;;;;;;5006646;28;20108;-74
2023/08/23 02:47:06;;;;;;;11.80;4.50;;;;;;;;;;5004619;28;20502;-75
2023/08/23 02:49:31;;;;;;;6.18;3.42;;;;;;;;;;5005292;28;20100;-74
2023/08/23 02:51:56;;;;;;;5.33;3.13;;;;;;;;;;5008330;28;20049;-74
2023/08/23 02:54:21;;;;;;;6.90;4.50;;;;;;;;;;5004132;28;20336;-74
2023/08/23 02:56:46;;;;;;;6.93;3.70;;;;;;;;;;5007388;28;20029;-74
2023/08/23 02:59:11;;;;;;;5.07;3.50;;;;;;;;;;5004850;28;20288;-74
2023/08/23 03:01:37;;;;;;;7.73;3.93;;;;;;;;;;5011059;28;20411;-74
2023/08/23 03:04:02;;;;;;;8.13;4.20;;;;;;;;;;5009175;28;20265;-75
2023/08/23 03:06:27;;;;;;;10.90;4.55;;;;;;;;;;5008325;28;20096;-74
2023/08/23 03:08:52;;;;;;;6.67;3.97;;;;;;;;;;5002623;28;20032;-74
2023/08/23 03:11:18;;;;;;;9.90;4.37;;;;;;;;;;5010244;28;20261;-74
2023/08/23 03:13:43;;;;;;;16.38;5.50;;;;;;;;;;5006813;28;20300;-74
2023/08/23 03:16:08;;;;;;;7.47;4.17;;;;;;;;;;5008342;28;20267;-74
2023/08/23 03:18:33;;;;;;;7.70;4.80;;;;;;;;;;5007386;28;20273;-74
2023/08/23 03:20:58;;;;;;;12.43;4.03;;;;;;;;;;5009143;28;20359;-74
2023/08/23 03:23:23;;;;;;;12.53;3.83;;;;;;;;;;5009132;28;20480;-74
2023/08/23 03:25:49;;;;;;;14.18;4.10;;;;;;;;;;5006888;28;20036;-75
2023/08/23 03:28:14;;;;;;;7.88;3.50;;;;;;;;;;5008376;28;20026;-74
2023/08/23 03:30:40;;;;;;;12.95;4.47;;;;;;;;;;5010655;28;20443;-74
2023/08/23 03:33:05;;;;;;;13.13;4.53;;;;;;;;;;5007052;28;20018;-74
2023/08/23 03:35:30;;;;;;;8.25;4.63;;;;;;;;;;5006508;28;20053;-74
2023/08/23 03:37:56;;;;;;;10.65;4.35;;;;;;;;;;5006350;28;20054;-75
2023/08/23 03:40:21;;;;;;;11.88;4.10;;;;;;;;;;5010102;28;20109;-74
2023/08/23 03:42:46;;;;;;;7.87;4.93;;;;;;;;;;5007397;28;20042;-74
2023/08/23 03:45:11;;;;;;;11.83;4.13;;;;;;;;;;5006767;28;20030;-75
2023/08/23 03:47:36;;;;;;;10.93;4.55;;;;;;;;;;5006630;28;20862;-74
2023/08/23 03:50:02;;;;;;;9.63;4.73;;;;;;;;;;5008999;28;20088;-74
2023/08/23 03:52:28;;;;;;;13.43;5.95;;;;;;;;;;5006548;28;20033;-74
2023/08/23 03:54:53;;;;;;;11.13;5.03;;;;;;;;;;4991793;28;20022;-74
2023/08/23 03:57:18;;;;;;;8.13;4.97;;;;;;;;;;5001631;28;20038;-74
2023/08/23 03:59:43;;;;;;;8.30;4.67;;;;;;;;;;5009400;28;20256;-74
2023/08/23 04:02:08;;;;;;;10.57;5.07;;;;;;;;;;5010448;28;20730;-74
2023/08/23 04:04:34;;;;;;;9.35;4.25;;;;;;;;;;5004263;28;20026;-74
2023/08/23 04:06:59;;;;;;;11.45;4.60;;;;;;;;;;5005386;28;20056;-74
2023/08/23 04:09:24;;;;;;;13.20;4.57;;;;;;;;;;4998802;28;20427;-75
2023/08/23 04:11:49;;;;;;;10.13;5.07;;;;;;;;;;5001042;28;20022;-75
2023/08/23 04:14:14;;;;;;;8.33;5.03;;;;;;;;;;5000850;28;20022;-75
2023/08/23 04:16:39;;;;;;;10.37;6.13;;;;;;;;;;5010273;28;20022;-74
2023/08/23 04:19:04;;;;;;;11.63;4.80;;;;;;;;;;5012592;28;20061;-75
2023/08/23 04:21:30;;;;;;;8.70;5.00;;;;;;;;;;5014164;28;20276;-74
2023/08/23 04:23:55;;;;;;;7.47;4.20;;;;;;;;;;5010561;28;20260;-74
2023/08/23 04:26:20;;;;;;;10.70;4.78;;;;;;;;;;5009357;28;20034;-74
2023/08/23 04:28:46;;;;;;;7.03;4.50;;;;;;;;;;5008738;28;20021;-74
2023/08/23 04:31:11;;;;;;;9.48;4.60;;;;;;;;;;5011753;28;20260;-75
2023/08/23 04:33:36;;;;;;;9.97;4.30;;;;;;;;;;5005792;28;20468;-74
2023/08/23 04:36:02;;;;;;;12.93;5.13;;;;;;;;;;5010272;28;20280;-74
2023/08/23 04:38:27;;;;;;;13.23;4.70;;;;;;;;;;5008098;28;20030;-75
2023/08/23 04:41:02;;;;;;;23.10;6.22;;;;;;;;;;5013564;28;20022;-74
2023/08/23 04:43:27;;;;;;;10.60;4.28;;;;;;;;;;5004977;28;20036;-75
2023/08/23 04:45:54;;;;;;;9.93;5.07;;;;;;;;;;5008099;28;20026;-74
2023/08/23 04:48:19;;;;;;;17.85;6.45;;;;;;;;;;5009370;28;20278;-74
2023/08/23 04:50:49;;;;;;;11.48;4.80;;;;;;;;;;5011184;28;20386;-74
2023/08/23 04:53:14;;;;;;;10.35;4.57;;;;;;;;;;4995491;28;20064;-74
2023/08/23 04:55:39;;;;;;;9.00;4.37;;;;;;;;;;5005710;28;20026;-74
2023/08/23 04:58:04;;;;;;;7.57;4.73;;;;;;;;;;5010784;28;20475;-75
2023/08/23 05:00:30;;;;;;;12.85;4.55;;;;;;;;;;5011816;28;20100;-75
2023/08/23 05:02:55;;;;;;;13.33;4.90;;;;;;;;;;5012759;28;20045;-74
2023/08/23 05:05:20;;;;;;;12.23;5.37;;;;;;;;;;5009105;28;20034;-75
2023/08/23 05:07:45;;;;;;;11.60;5.10;;;;;;;;;;5012272;28;20249;-74
2023/08/23 05:10:10;;;;;;;9.27;4.07;;;;;;;;;;5012003;28;20265;-74
2023/08/23 05:12:36;;;;;;;12.48;4.60;;;;;;;;;;5005243;28;20709;-74
2023/08/23 05:15:01;;;;;;;9.40;4.38;;;;;;;;;;4997300;28;20018;-74
2023/08/23 05:17:26;;;;;;;14.25;5.05;;;;;;;;;;5011310;28;20495;-74
2023/08/23 05:19:51;;;;;;;9.47;5.13;;;;;;;;;;5008621;28;20442;-74
2023/08/23 05:22:16;;;;;;;15.47;5.87;;;;;;;;;;4994234;28;20041;-74
2023/08/23 05:24:41;;;;;;;8.17;4.73;;;;;;;;;;5007822;28;20032;-74
2023/08/23 05:27:07;;;;;;;14.10;5.40;;;;;;;;;;5005702;28;20022;-74
2023/08/23 05:29:32;;;;;;;9.80;5.18;;;;;;;;;;5008869;28;20750;-74
2023/08/23 05:31:57;;;;;;;12.10;5.60;;;;;;;;;;5003671;28;20030;-75
2023/08/23 05:34:22;;;;;;;12.70;5.87;;;;;;;;;;5004297;28;20044;-74
2023/08/23 05:36:47;;;;;;;16.50;5.57;;;;;;;;;;5005164;28;20014;-74
2023/08/23 05:39:12;;;;;;;16.33;5.73;;;;;;;;;;5008687;28;20281;-74
2023/08/23 05:41:38;;;;;;;17.00;5.63;;;;;;;;;;5009842;28;20265;-74
2023/08/23 05:44:03;;;;;;;9.48;6.13;;;;;;;;;;5003252;28;20480;-74
2023/08/23 05:46:28;;;;;;;13.55;5.60;;;;;;;;;;5008265;28;20034;-75
2023/08/23 05:48:53;;;;;;;11.67;5.57;;;;;;;;;;4999968;28;20026;-74
2023/08/23 05:51:19;;;;;;;14.02;6.53;;;;;;;;;;5003192;28;20703;-74
2023/08/23 05:53:44;;;;;;;13.13;5.90;;;;;;;;;;5000425;28;20014;-74
2023/08/23 05:56:09;;;;;;;15.52;6.55;;;;;;;;;;5003506;28;20101;-74
2023/08/23 05:58:34;;;;;;;9.90;5.70;;;;;;;;;;4981818;28;20041;-74
2023/08/23 06:00:59;;;;;;;10.67;5.70;;;;;;;;;;5007022;28;20638;-75
2023/08/23 06:03:25;;;;;;;11.60;5.70;;;;;;;;;;5007376;28;20029;-74
2023/08/23 06:05:55;;;;;;;8.73;5.35;;;;;;;;;;5000192;28;20283;-74
2023/08/23 06:08:20;;;;;;;11.45;6.22;;;;;;;;;;5002744;28;20375;-74
2023/08/23 06:10:45;;;;;;;10.00;5.00;;;;;;;;;;4999602;28;20021;-75
2023/08/23 06:13:10;;;;;;;13.97;5.77;;;;;;;;;;5003065;28;20280;-74
2023/08/23 06:15:35;;;;;;;15.68;6.03;;;;;;;;;;5000501;28;20056;-74
2023/08/23 06:18:00;;;;;;;15.43;5.45;;;;;;;;;;5002956;28;20046;-74
2023/08/23 06:20:26;;;;;;;18.08;6.60;;;;;;;;;;4998730;28;20026;-74
2023/08/23 06:22:51;;;;;;;13.43;5.45;;;;;;;;;;5000530;28;20022;-74
2023/08/23 06:25:16;;;;;;;19.03;7.60;;;;;;;;;;5001821;28;20486;-74
2023/08/23 06:27:44;;;;;;;10.80;5.73;;;;;;;;;;5003592;28;20010;-74
2023/08/23 06:30:09;;;;;;;12.23;5.13;;;;;;;;;;4983245;28;20370;-74
2023/08/23 06:32:34;;;;;;;10.88;5.40;;;;;;;;;;5003729;28;20053;-74
2023/08/23 06:34:59;;;;;;;10.10;5.53;;;;;;;;;;4999778;28;20041;-74
2023/08/23 06:37:25;;;;;;;9.77;5.47;;;;;;;;;;4998232;28;20291;-75
2023/08/23 06:39:50;;;;;;;8.60;4.73;;;;;;;;;;5002339;28;20300;-74
2023/08/23 06:42:17;;;;;;;11.73;6.03;;;;;;;;;;4999165;28;20308;-74
2023/08/23 06:44:42;;;;;;;10.85;6.00;;;;;;;;;;4987406;28;20289;-74
2023/08/23 06:47:07;;;;;;;13.57;5.18;;;;;;;;;;5005927;28;20038;-72
2023/08/23 06:49:32;;;;;;;8.33;4.53;;;;;;;;;;5006944;28;20025;-74
2023/08/23 06:51:58;;;;;;;8.82;5.03;;;;;;;;;;4993306;28;20028;-74
2023/08/23 06:54:23;;;;;;;8.00;4.78;;;;;;;;;;5010276;28;20553;-74
2023/08/23 06:56:48;;;;;;;13.47;5.30;;;;;;;;;;5010932;28;20101;-73
2023/08/23 06:59:13;;;;;;;10.27;5.07;;;;;;;;;;5008783;28;20014;-74
2023/08/23 07:01:38;;;;;;;10.73;5.30;;;;;;;;;;5009434;28;20474;-73
2023/08/23 07:04:04;;;;;;;11.87;5.77;;;;;;;;;;5010036;28;20065;-74
2023/08/23 07:06:29;;;;;;;18.23;5.67;;;;;;;;;;5011023;28;20364;-73
2023/08/23 07:08:54;;;;;;;14.15;6.38;;;;;;;;;;4992389;28;20273;-74
2023/08/23 07:11:20;;;;;;;10.13;5.23;;;;;;;;;;5010632;28;20092;-75
2023/08/23 07:13:45;;;;;;;10.37;4.83;;;;;;;;;;5009066;28;20257;-74
2023/08/23 07:16:10;;;;;;;14.73;5.60;;;;;;;;;;5010019;28;20121;-75
2023/08/23 07:18:36;;;;;;;15.17;4.73;;;;;;;;;;5010896;28;20083;-75
2023/08/23 07:21:03;;;;;;;12.55;6.32;;;;;;;;;;5010582;28;20272;-74
2023/08/23 07:23:28;;;;;;;10.13;5.10;;;;;;;;;;5009876;28;20029;-75
2023/08/23 07:25:53;;;;;;;6.87;4.17;;;;;;;;;;5007758;28;20030;-72
2023/08/23 07:28:18;;;;;;;10.03;5.13;;;;;;;;;;5010530;28;20026;-73
2023/08/23 07:30:49;;;;;;;8.57;4.77;;;;;;;;;;5010699;28;20026;-74
2023/08/23 07:33:14;;;;;;;12.07;4.70;;;;;;;;;;5009413;28;20049;-72
2023/08/23 07:35:39;;;;;;;9.68;5.05;;;;;;;;;;5009616;28;20069;-72
2023/08/23 07:38:05;;;;;;;16.20;4.40;;;;;;;;;;5009412;28;20105;-72
2023/08/23 07:40:30;;;;;;;10.60;4.60;;;;;;;;;;5010230;28;20499;-71
2023/08/23 07:42:55;;;;;;;7.57;4.55;;;;;;;;;;5009727;28;20026;-72
2023/08/23 07:45:21;;;;;;;8.80;4.43;;;;;;;;;;5010093;28;20124;-71
2023/08/23 07:47:46;;;;;;;13.23;5.37;;;;;;;;;;5009162;28;20032;-71
2023/08/23 07:50:11;;;;;;;18.95;5.50;;;;;;;;;;5009270;28;20074;-71
2023/08/23 07:52:36;;;;;;;10.57;5.13;;;;;;;;;;5007717;28;20033;-71
2023/08/23 07:55:01;;;;;;;8.47;4.60;;;;;;;;;;5010154;28;20097;-71
2023/08/23 07:57:27;;;;;;;11.27;5.17;;;;;;;;;;5009849;28;20364;-71
2023/08/23 07:59:55;;;;;;;12.93;4.77;;;;;;;;;;5010271;28;20658;-73
2023/08/23 08:02:20;;;;;;;11.10;5.32;;;;;;;;;;5009034;28;20026;-71
2023/08/23 08:04:46;;;;;;;13.30;5.70;;;;;;;;;;5008611;28;20356;-71
2023/08/23 08:07:12;;;;;;;9.30;5.00;;;;;;;;;;5006381;28;20720;-71
2023/08/23 08:09:37;;;;;;;13.77;5.33;;;;;;;;;;5008426;28;20108;-71
2023/08/23 08:12:02;;;;;;;9.97;4.57;;;;;;;;;;5007030;28;20034;-71
2023/08/23 08:14:27;;;;;;;11.20;4.97;;;;;;;;;;5003735;28;20476;-71
2023/08/23 08:16:52;;;;;;;10.17;4.80;;;;;;;;;;5008919;28;20061;-71
2023/08/23 08:19:18;;;;;;;9.10;4.37;;;;;;;;;;5009942;28;20022;-71
2023/08/23 08:21:43;;;;;;;8.17;5.00;;;;;;;;;;5010377;28;20014;-72
2023/08/23 08:24:08;;;;;;;10.83;4.30;;;;;;;;;;5007159;28;20031;-73
2023/08/23 08:26:33;;;;;;;9.43;5.33;;;;;;;;;;5008829;28;20457;-71
2023/08/23 08:28:58;;;;;;;11.37;4.20;;;;;;;;;;5009891;28;20509;-71
2023/08/23 08:31:23;;;;;;;14.10;4.57;;;;;;;;;;5009909;28;20025;-70
2023/08/23 08:33:49;;;;;;;8.37;3.93;;;;;;;;;;5007277;28;20162;-71
2023/08/23 08:36:15;;;;;;;11.60;4.55;;;;;;;;;;5008150;28;20022;-71
2023/08/23 08:38:40;;;;;;;8.15;3.55;;;;;;;;;;5009029;28;20033;-71
2023/08/23 08:41:05;;;;;;;9.43;5.43;;;;;;;;;;5002060;28;20515;-71
2023/08/23 08:43:31;;;;;;;8.13;3.38;;;;;;;;;;4997954;28;20034;-71
2023/08/23 08:45:57;;;;;;;8.70;4.05;;;;;;;;;;5003532;28;20382;-71
2023/08/23 08:48:22;;;;;;;9.95;4.03;;;;;;;;;;5009633;28;20025;-71
2023/08/23 08:50:47;;;;;;;8.47;3.50;;;;;;;;;;5009124;28;20237;-72
2023/08/23 08:53:17;;;;;;;13.00;3.27;;;;;;;;;;5004933;28;20026;-71
2023/08/23 08:55:43;;;;;;;9.32;3.40;;;;;;;;;;5007589;28;20653;-71
2023/08/23 08:58:08;;;;;;;8.75;3.28;;;;;;;;;;5009658;28;20026;-71
2023/08/23 09:00:34;;;;;;;6.65;2.78;;;;;;;;;;5007816;28;20029;-71
2023/08/23 09:02:59;;;;;;;9.63;2.35;;;;;;;;;;5009452;28;20110;-71
2023/08/23 09:05:25;;;;;;;6.83;2.07;;;;;;;;;;5012377;28;20144;-71
2023/08/23 09:07:51;;;;;;;4.57;1.45;;;;;;;;;;5010394;28;20025;-72
2023/08/23 09:10:16;;;;;;;7.47;2.50;;;;;;;;;;5012043;28;20250;-71
2023/08/23 09:12:42;;;;;;;3.28;2.00;;;;;;;;;;5011427;28;20561;-71
2023/08/23 09:15:07;;;;;;;6.60;2.20;;;;;;;;;;5009827;28;20033;-72
2023/08/23 09:17:35;;;;;;;5.40;2.00;;;;;;;;;;5011713;28;20483;-70
2023/08/23 09:20:09;;;;;;;7.78;2.20;;;;;;;;;;5013046;28;20032;-70
2023/08/23 09:22:35;;;;;;;11.40;2.30;;;;;;;;;;5008754;28;20033;-71
2023/08/23 09:25:01;;;;;;;5.18;1.70;;;;;;;;;;5011680;28;20044;-71
2023/08/23 09:27:26;;;;;;;7.80;2.45;;;;;;;;;;5012769;28;20460;-71
2023/08/23 09:29:55;;;;;;;8.83;2.43;;;;;;;;;;5012844;28;20022;-73
2023/08/23 09:32:20;;;;;;;7.03;2.53;;;;;;;;;;5008000;28;20053;-71
2023/08/23 09:34:46;;;;;;;5.95;2.30;;;;;;;;;;5011514;28;20045;-72
2023/08/23 09:37:11;;;;;;;10.90;2.78;;;;;;;;;;5012408;28;20108;-72
2023/08/23 09:39:36;;;;;;;13.97;2.50;;;;;;;;;;5012521;28;20445;-71
2023/08/23 09:42:04;;;;;;;5.73;2.10;;;;;;;;;;5009270;28;20819;-71
2023/08/23 09:44:30;;;;;;;6.45;2.70;;;;;;;;;;5008179;28;20025;-71
2023/08/23 09:46:58;;;;;;;6.80;2.40;;;;;;;;;;5012131;28;20467;-71
2023/08/23 09:49:24;;;;;;;10.60;2.50;;;;;;;;;;5011239;28;20028;-71
2023/08/23 09:51:50;;;;;;;6.65;2.28;;;;;;;;;;5006656;28;20100;-72
2023/08/23 09:54:33;;;;;;;7.53;2.20;;;;;;;;;;5010639;28;20427;-71
2023/08/23 09:56:59;;;;;;;12.70;2.80;;;;;;;;;;5012308;28;20033;-72
2023/08/23 09:59:24;;;;;;;11.70;2.75;;;;;;;;;;5010445;28;20029;-71
2023/08/23 10:01:49;;;;;;;7.65;2.90;;;;;;;;;;5006624;28;20097;-71
2023/08/23 10:04:15;;;;;;;10.75;2.97;;;;;;;;;;5012114;28;20282;-72
2023/08/23 10:06:40;;;;;;;5.00;2.00;;;;;;;;;;5012097;28;20026;-72
2023/08/23 10:09:06;;;;;;;10.90;2.85;;;;;;;;;;5010686;28;20349;-72
2023/08/23 10:11:32;;;;;;;11.70;3.33;;;;;;;;;;5006391;28;20076;-72
2023/08/23 10:13:58;;;;;;;8.98;2.50;;;;;;;;;;5011159;28;20022;-72
2023/08/23 10:16:24;;;;;;;24.08;3.97;;;;;;;;;;5010292;28;20038;-71
2023/08/23 10:18:50;;;;;;;7.55;3.15;;;;;;;;;;5011434;28;20014;-71
2023/08/23 10:21:16;;;;;;;10.25;2.67;;;;;;;;;;5009151;28;20119;-71
2023/08/23 10:23:41;;;;;;;8.57;3.07;;;;;;;;;;5009371;28;20062;-71
2023/08/23 10:26:16;;;;;;;9.45;3.50;;;;;;;;;;5008519;28;20061;-71
2023/08/23 10:28:48;;;;;;;8.77;4.32;;;;;;;;;;5008928;28;20029;-72
2023/08/23 10:31:20;;;;;;;11.95;4.05;;;;;;;;;;5009562;28;20791;-71
2023/08/23 10:33:48;;;;;;;11.07;3.97;;;;;;;;;;5006309;28;20361;-73
2023/08/23 10:36:20;;;;;;;11.85;4.20;;;;;;;;;;5006214;28;20098;-72
2023/08/23 10:38:46;;;;;;;5.97;3.25;;;;;;;;;;4992452;28;20033;-71
2023/08/23 10:41:16;;;;;;;10.93;3.85;;;;;;;;;;5009061;28;20025;-72
2023/08/23 10:43:42;;;;;;;7.88;3.63;;;;;;;;;;5009326;28;20113;-71
2023/08/23 10:46:08;;;;;;;15.23;3.80;;;;;;;;;;5009632;28;20475;-71
2023/08/23 10:48:33;;;;;;;13.45;3.78;;;;;;;;;;5010611;28;20117;-71
2023/08/23 10:50:59;;;;;;;16.13;4.60;;;;;;;;;;5008624;28;20096;-72
2023/08/23 10:53:24;;;;;;;9.20;3.83;;;;;;;;;;5011009;28;20440;-72
2023/08/23 10:55:50;;;;;;;10.13;4.10;;;;;;;;;;5010558;28;20033;-72
2023/08/23 10:58:15;;;;;;;12.05;4.22;;;;;;;;;;5009490;28;20041;-73
2023/08/23 11:00:45;;;;;;;9.88;4.45;;;;;;;;;;5005269;28;20018;-72
2023/08/23 11:03:11;;;;;;;10.90;4.45;;;;;;;;;;5010228;28;20392;-72
2023/08/23 11:05:36;;;;;;;16.65;5.32;;;;;;;;;;5011172;28;20025;-73
2023/08/23 11:08:02;;;;;;;10.43;4.03;;;;;;;;;;5009292;28;20105;-71
2023/08/23 11:10:27;;;;;;;10.25;4.93;;;;;;;;;;5008484;28;20620;-73
2023/08/23 11:12:52;;;;;;;9.63;4.57;;;;;;;;;;5005899;28;20010;-71
2023/08/23 11:15:19;;;;;;;16.33;5.70;;;;;;;;;;5006985;28;20284;-72
2023/08/23 11:17:45;;;;;;;14.52;4.63;;;;;;;;;;5005512;28;20383;-71
2023/08/23 11:20:10;;;;;;;10.75;5.18;;;;;;;;;;5002480;28;20022;-72
2023/08/23 11:22:35;;;;;;;10.02;4.20;;;;;;;;;;5008177;28;20458;-71
2023/08/23 11:25:02;;;;;;;9.80;4.33;;;;;;;;;;5009637;28;20180;-72
2023/08/23 11:27:27;;;;;;;9.57;3.65;;;;;;;;;;5008059;28;20273;-71
2023/08/23 11:29:53;;;;;;;8.93;4.43;;;;;;;;;;5008533;28;20022;-72
2023/08/23 11:32:19;;;;;;;11.57;3.60;;;;;;;;;;5007871;28;20041;-72
2023/08/23 11:34:46;;;;;;;13.13;3.65;;;;;;;;;;5008554;28;20026;-72
2023/08/23 11:37:12;;;;;;;11.55;3.08;;;;;;;;;;5007294;28;20018;-74
2023/08/23 11:39:37;;;;;;;7.60;2.72;;;;;;;;;;5004276;28;20030;-73
2023/08/23 11:42:02;;;;;;;8.17;2.83;;;;;;;;;;5009672;28;20053;-72
2023/08/23 11:44:27;;;;;;;8.10;2.60;;;;;;;;;;5010308;28;20614;-72
2023/08/23 11:46:53;;;;;;;10.48;2.50;;;;;;;;;;4988448;28;20080;-71
2023/08/23 11:49:19;;;;;;;9.35;2.28;;;;;;;;;;4992177;28;20056;-71
2023/08/23 11:51:48;;;;;;;8.60;2.20;;;;;;;;;;5009648;28;20432;-74
2023/08/23 11:54:13;;;;;;;14.33;2.40;;;;;;;;;;5008284;28;20356;-72
2023/08/23 11:56:40;;;;;;;7.75;2.35;;;;;;;;;;5007628;28;20372;-72
2023/08/23 11:59:06;;;;;;;9.68;2.38;;;;;;;;;;5006379;28;20025;-71
2023/08/23 12:01:31;;;;;;;5.13;2.20;;;;;;;;;;4991171;28;20424;-71
2023/08/23 12:03:56;;;;;;;14.33;1.97;;;;;;;;;;5008487;28;20028;-71
2023/08/23 12:06:21;;;;;;;8.15;2.20;;;;;;;;;;5006166;28;20284;-71
2023/08/23 12:08:46;;;;;;;8.47;2.03;;;;;;;;;;5005466;28;20023;-74
2023/08/23 12:11:12;;;;;;;7.97;2.50;;;;;;;;;;5004347;28;20496;-72
2023/08/23 12:13:37;;;;;;;4.70;1.67;;;;;;;;;;5008724;28;20065;-75
2023/08/23 12:16:02;;;;;;;5.80;1.90;;;;;;;;;;5006851;28;20096;-72
2023/08/23 12:18:28;;;;;;;6.07;1.53;;;;;;;;;;5008916;28;20033;-72
2023/08/23 12:20:53;;;;;;;3.33;1.50;;;;;;;;;;5009506;28;20257;-72
2023/08/23 12:23:18;;;;;;;8.73;1.65;;;;;;;;;;5008794;28;20026;-71
2023/08/23 12:25:43;;;;;;;5.40;2.23;;;;;;;;;;5007643;28;20084;-72
2023/08/23 12:28:08;;;;;;;7.80;2.60;;;;;;;;;;5008788;28;20089;-72
2023/08/23 12:30:33;;;;;;;5.23;2.07;;;;;;;;;;5008734;28;20024;-74
2023/08/23 12:32:59;;;;;;;7.10;1.77;;;;;;;;;;5010007;28;20053;-71
2023/08/23 12:35:24;;;;;;;5.67;2.40;;;;;;;;;;5005481;28;20327;-72
2023/08/23 12:37:49;;;;;;;8.37;1.87;;;;;;;;;;5013030;28;20100;-72
2023/08/23 12:40:14;;;;;;;7.90;1.90;;;;;;;;;;5013575;28;20730;-72
2023/08/23 12:42:39;;;;;;;6.27;2.20;;;;;;;;;;5013502;28;20591;-72
2023/08/23 12:45:05;;;;;;;4.67;1.73;;;;;;;;;;5010579;28;20042;-74
2023/08/23 12:47:30;;;;;;;13.65;1.85;;;;;;;;;;5013009;28;20444;-73
2023/08/23 12:49:55;;;;;;;3.37;1.53;;;;;;;;;;5005295;28;20030;-73
2023/08/23 12:52:20;;;;;;;3.50;1.73;;;;;;;;;;5013315;28;20022;-72
2023/08/23 12:54:46;;;;;;;11.23;1.60;;;;;;;;;;5005163;28;20025;-73
2023/08/23 12:57:11;;;;;;;5.23;1.30;;;;;;;;;;5011033;28;20400;-72
2023/08/23 12:59:36;;;;;;;14.88;2.10;;;;;;;;;;5011313;28;20280;-73
2023/08/23 13:02:01;;;;;;;6.53;1.60;;;;;;;;;;5010784;28;20537;-73
2023/08/23 13:04:26;;;;;;;7.90;2.03;;;;;;;;;;5009742;28;20021;-72
2023/08/23 13:06:52;;;;;;;7.40;1.60;;;;;;;;;;5010653;28;20308;-72
2023/08/23 13:09:17;;;;;;;4.73;1.73;;;;;;;;;;5012160;28;20025;-75
2023/08/23 13:11:42;;;;;;;6.00;1.63;;;;;;;;;;5012470;28;20026;-72
2023/08/23 13:14:07;;;;;;;6.55;1.50;;;;;;;;;;5002585;28;20373;-74
2023/08/23 13:16:32;;;;;;;8.17;1.97;;;;;;;;;;5011731;28;20024;-72
2023/08/23 13:18:58;;;;;;;4.87;2.17;;;;;;;;;;5012932;28;20273;-73
2023/08/23 13:21:23;;;;;;;6.07;1.88;;;;;;;;;;5007252;28;20415;-74
2023/08/23 13:23:48;;;;;;;8.73;1.80;;;;;;;;;;5010357;28;20108;-73
2023/08/23 13:26:14;;;;;;;9.07;1.80;;;;;;;;;;5010664;28;20301;-75
2023/08/23 13:28:39;;;;;;;8.02;2.17;;;;;;;;;;5012117;28;20017;-74
2023/08/23 13:31:04;;;;;;;8.43;1.93;;;;;;;;;;5010474;28;20541;-72
2023/08/23 13:33:30;;;;;;;6.75;1.98;;;;;;;;;;5012462;28;20642;-76
2023/08/23 13:35:55;;;;;;;5.13;2.10;;;;;;;;;;5010450;28;20514;-74
2023/08/23 13:38:21;;;;;;;3.33;1.63;;;;;;;;;;5005309;28;20044;-73
2023/08/23 13:40:46;;;;;;;6.97;1.65;;;;;;;;;;5006325;28;20025;-75
2023/08/23 13:43:12;;;;;;;4.27;2.17;;;;;;;;;;5008930;28;20574;-72
2023/08/23 13:45:37;;;;;;;4.63;1.67;;;;;;;;;;5006532;28;20026;-73
2023/08/23 13:48:02;;;;;;;4.03;1.70;;;;;;;;;;5008211;28;20498;-73
2023/08/23 13:50:27;;;;;;;5.10;1.70;;;;;;;;;;5005216;28;20999;-73
2023/08/23 13:52:52;;;;;;;4.60;2.37;;;;;;;;;;5006058;28;20623;-78
2023/08/23 13:55:18;;;;;;;12.20;2.13;;;;;;;;;;5008364;28;20117;-73
2023/08/23 13:57:43;;;;;;;8.00;1.60;;;;;;;;;;5005115;28;20026;-76
2023/08/23 14:00:08;;;;;;;6.20;2.90;;;;;;;;;;5003883;28;20327;-72
2023/08/23 14:02:33;;;;;;;4.72;1.70;;;;;;;;;;5008027;28;20049;-76
2023/08/23 14:04:59;;;;;;;3.53;1.60;;;;;;;;;;5010457;28;20383;-72
2023/08/23 14:07:24;;;;;;;9.23;2.55;;;;;;;;;;4993089;28;20459;-74
2023/08/23 14:09:49;;;;;;;11.67;1.90;;;;;;;;;;4988973;28;20105;-76
2023/08/23 14:12:14;;;;;;;9.47;2.03;;;;;;;;;;5008174;28;20267;-73
2023/08/23 14:14:39;;;;;;;9.30;2.13;;;;;;;;;;5011691;28;20566;-74
2023/08/23 14:17:04;;;;;;;8.57;2.13;;;;;;;;;;5010818;28;20033;-72
2023/08/23 14:19:30;;;;;;;5.97;2.38;;;;;;;;;;5002442;28;20536;-72
2023/08/23 14:21:56;;;;;;;9.43;2.83;;;;;;;;;;5009508;28;20029;-74
2023/08/23 14:24:21;;;;;;;5.60;2.15;;;;;;;;;;5011234;28;20478;-73
2023/08/23 14:26:46;;;;;;;5.90;2.47;;;;;;;;;;5007051;28;20391;-72
2023/08/23 14:29:11;;;;;;;4.47;2.33;;;;;;;;;;5009374;28;20046;-72